sensor_id;sensor_type;location;lat;lon;timestamp;P1;durP1;ratioP1;P2;durP2;ratioP2
39502;SDS011;26970;49.900;10.774;2024-02-28T00:00:26;26.90;;;11.93;;
39502;SDS011;26970;49.900;10.774;2024-02-28T00:02:51;25.08;;;11.43;;
39502;SDS011;26970;49.900;10.774;2024-02-28T00:05:17;19.73;;;8.80;;
39502;SDS011;26970;49.900;10.774;2024-02-28T00:07:42;21.25;;;8.90;;
39502;SDS011;26970;49.900;10.774;2024-02-28T00:10:08;24.42;;;11.90;;
39502;SDS011;26970;49.900;10.774;2024-02-28T00:12:34;22.40;;;9.20;;
39502;SDS011;26970;49.900;10.774;2024-02-28T00:15:00;21.73;;;9.40;;
39502;SDS011;26970;49.900;10.774;2024-02-28T00:17:25;28.38;;;10.90;;
39502;SDS011;26970;49.900;10.774;2024-02-28T00:19:51;28.27;;;10.63;;
39502;SDS011;26970;49.900;10.774;2024-02-28T00:22:16;28.50;;;11.20;;
39502;SDS011;26970;49.900;10.774;2024-02-28T00:24:42;28.60;;;11.38;;
39502;SDS011;26970;49.900;10.774;2024-02-28T00:27:08;29.17;;;11.88;;
39502;SDS011;26970;49.900;10.774;2024-02-28T00:29:33;26.92;;;10.85;;
39502;SDS011;26970;49.900;10.774;2024-02-28T00:31:59;30.17;;;12.57;;
39502;SDS011;26970;49.900;10.774;2024-02-28T00:34:24;29.40;;;11.35;;
39502;SDS011;26970;49.900;10.774;2024-02-28T00:36:50;33.00;;;13.15;;
39502;SDS011;26970;49.900;10.774;2024-02-28T00:39:16;35.45;;;12.77;;
39502;SDS011;26970;49.900;10.774;2024-02-28T00:41:42;26.13;;;11.68;;
39502;SDS011;26970;49.900;10.774;2024-02-28T00:44:07;33.13;;;13.13;;
39502;SDS011;26970;49.900;10.774;2024-02-28T00:46:33;28.95;;;12.68;;
39502;SDS011;26970;49.900;10.774;2024-02-28T00:48:59;28.27;;;11.75;;
39502;SDS011;26970;49.900;10.774;2024-02-28T00:51:24;26.70;;;11.48;;
39502;SDS011;26970;49.900;10.774;2024-02-28T00:53:50;18.00;;;8.90;;
39502;SDS011;26970;49.900;10.774;2024-02-28T00:56:15;28.45;;;12.77;;
39502;SDS011;26970;49.900;10.774;2024-02-28T00:58:43;27.60;;;12.15;;
39502;SDS011;26970;49.900;10.774;2024-02-28T01:01:09;27.60;;;10.38;;
39502;SDS011;26970;49.900;10.774;2024-02-28T01:03:34;29.20;;;11.48;;
39502;SDS011;26970;49.900;10.774;2024-02-28T01:06:00;24.98;;;11.38;;
39502;SDS011;26970;49.900;10.774;2024-02-28T01:08:26;31.13;;;11.70;;
39502;SDS011;26970;49.900;10.774;2024-02-28T01:10:51;29.60;;;13.38;;
39502;SDS011;26970;49.900;10.774;2024-02-28T01:13:17;27.83;;;11.25;;
39502;SDS011;26970;49.900;10.774;2024-02-28T01:15:43;26.52;;;12.52;;
39502;SDS011;26970;49.900;10.774;2024-02-28T01:18:08;31.95;;;12.15;;
39502;SDS011;26970;49.900;10.774;2024-02-28T01:20:35;27.27;;;11.10;;
39502;SDS011;26970;49.900;10.774;2024-02-28T01:23:00;29.73;;;11.63;;
39502;SDS011;26970;49.900;10.774;2024-02-28T01:25:26;27.67;;;13.10;;
39502;SDS011;26970;49.900;10.774;2024-02-28T01:27:51;27.17;;;11.43;;
39502;SDS011;26970;49.900;10.774;2024-02-28T01:30:17;24.83;;;10.50;;
39502;SDS011;26970;49.900;10.774;2024-02-28T01:32:43;33.80;;;13.18;;
39502;SDS011;26970;49.900;10.774;2024-02-28T01:35:09;32.63;;;12.27;;
39502;SDS011;26970;49.900;10.774;2024-02-28T01:37:34;29.40;;;12.68;;
39502;SDS011;26970;49.900;10.774;2024-02-28T01:40:00;29.75;;;11.75;;
39502;SDS011;26970;49.900;10.774;2024-02-28T01:42:27;27.70;;;11.65;;
39502;SDS011;26970;49.900;10.774;2024-02-28T01:44:53;29.55;;;12.68;;
39502;SDS011;26970;49.900;10.774;2024-02-28T01:47:19;25.08;;;10.20;;
39502;SDS011;26970;49.900;10.774;2024-02-28T01:49:45;27.23;;;11.27;;
39502;SDS011;26970;49.900;10.774;2024-02-28T01:52:12;27.25;;;11.18;;
39502;SDS011;26970;49.900;10.774;2024-02-28T01:54:38;22.17;;;9.18;;
39502;SDS011;26970;49.900;10.774;2024-02-28T01:57:04;24.38;;;11.82;;
39502;SDS011;26970;49.900;10.774;2024-02-28T01:59:31;25.58;;;10.13;;
39502;SDS011;26970;49.900;10.774;2024-02-28T02:01:59;25.15;;;10.68;;
39502;SDS011;26970;49.900;10.774;2024-02-28T02:04:25;28.88;;;10.85;;
39502;SDS011;26970;49.900;10.774;2024-02-28T02:06:50;28.42;;;10.43;;
39502;SDS011;26970;49.900;10.774;2024-02-28T02:09:19;20.73;;;10.27;;
39502;SDS011;26970;49.900;10.774;2024-02-28T02:11:50;27.83;;;11.68;;
39502;SDS011;26970;49.900;10.774;2024-02-28T02:14:16;21.90;;;9.98;;
39502;SDS011;26970;49.900;10.774;2024-02-28T02:16:42;26.65;;;10.65;;
39502;SDS011;26970;49.900;10.774;2024-02-28T02:19:08;25.45;;;9.88;;
39502;SDS011;26970;49.900;10.774;2024-02-28T02:21:34;24.92;;;10.43;;
39502;SDS011;26970;49.900;10.774;2024-02-28T02:24:06;19.57;;;9.53;;
39502;SDS011;26970;49.900;10.774;2024-02-28T02:26:31;17.70;;;8.57;;
39502;SDS011;26970;49.900;10.774;2024-02-28T02:28:57;28.42;;;10.13;;
39502;SDS011;26970;49.900;10.774;2024-02-28T02:31:22;22.52;;;8.60;;
39502;SDS011;26970;49.900;10.774;2024-02-28T02:33:48;23.77;;;10.50;;
39502;SDS011;26970;49.900;10.774;2024-02-28T02:36:13;20.85;;;8.60;;
39502;SDS011;26970;49.900;10.774;2024-02-28T02:38:39;17.92;;;9.25;;
39502;SDS011;26970;49.900;10.774;2024-02-28T02:41:05;18.13;;;7.32;;
39502;SDS011;26970;49.900;10.774;2024-02-28T02:43:30;17.35;;;8.77;;
39502;SDS011;26970;49.900;10.774;2024-02-28T02:45:56;18.75;;;7.70;;
39502;SDS011;26970;49.900;10.774;2024-02-28T02:48:21;18.13;;;8.25;;
39502;SDS011;26970;49.900;10.774;2024-02-28T02:50:47;20.98;;;8.85;;
39502;SDS011;26970;49.900;10.774;2024-02-28T02:53:12;20.27;;;8.80;;
39502;SDS011;26970;49.900;10.774;2024-02-28T02:55:39;20.42;;;8.90;;
39502;SDS011;26970;49.900;10.774;2024-02-28T02:58:04;18.45;;;7.85;;
39502;SDS011;26970;49.900;10.774;2024-02-28T03:00:30;16.63;;;7.70;;
39502;SDS011;26970;49.900;10.774;2024-02-28T03:02:56;17.50;;;8.50;;
39502;SDS011;26970;49.900;10.774;2024-02-28T03:05:21;17.20;;;7.05;;
39502;SDS011;26970;49.900;10.774;2024-02-28T03:07:47;18.92;;;7.72;;
39502;SDS011;26970;49.900;10.774;2024-02-28T03:10:12;16.63;;;7.70;;
39502;SDS011;26970;49.900;10.774;2024-02-28T03:12:38;18.30;;;7.18;;
39502;SDS011;26970;49.900;10.774;2024-02-28T03:15:03;19.27;;;8.38;;
39502;SDS011;26970;49.900;10.774;2024-02-28T03:17:30;14.23;;;7.03;;
39502;SDS011;26970;49.900;10.774;2024-02-28T03:19:56;18.70;;;8.35;;
39502;SDS011;26970;49.900;10.774;2024-02-28T03:22:21;21.00;;;8.73;;
39502;SDS011;26970;49.900;10.774;2024-02-28T03:24:47;16.27;;;7.88;;
39502;SDS011;26970;49.900;10.774;2024-02-28T03:27:13;18.52;;;8.65;;
39502;SDS011;26970;49.900;10.774;2024-02-28T03:29:39;16.10;;;8.13;;
39502;SDS011;26970;49.900;10.774;2024-02-28T03:32:04;16.38;;;7.30;;
39502;SDS011;26970;49.900;10.774;2024-02-28T03:34:30;19.40;;;7.47;;
39502;SDS011;26970;49.900;10.774;2024-02-28T03:36:56;16.15;;;8.27;;
39502;SDS011;26970;49.900;10.774;2024-02-28T03:39:22;16.83;;;8.20;;
39502;SDS011;26970;49.900;10.774;2024-02-28T03:41:47;20.80;;;9.18;;
39502;SDS011;26970;49.900;10.774;2024-02-28T03:44:13;18.13;;;8.05;;
39502;SDS011;26970;49.900;10.774;2024-02-28T03:46:38;23.48;;;9.57;;
39502;SDS011;26970;49.900;10.774;2024-02-28T03:49:04;16.38;;;7.43;;
39502;SDS011;26970;49.900;10.774;2024-02-28T03:51:29;17.08;;;8.93;;
39502;SDS011;26970;49.900;10.774;2024-02-28T03:53:55;16.35;;;7.50;;
39502;SDS011;26970;49.900;10.774;2024-02-28T03:56:21;20.10;;;9.02;;
39502;SDS011;26970;49.900;10.774;2024-02-28T03:58:50;19.00;;;9.10;;
39502;SDS011;26970;49.900;10.774;2024-02-28T04:01:17;15.10;;;7.97;;
39502;SDS011;26970;49.900;10.774;2024-02-28T04:03:43;15.80;;;8.88;;
39502;SDS011;26970;49.900;10.774;2024-02-28T04:06:08;17.27;;;7.90;;
39502;SDS011;26970;49.900;10.774;2024-02-28T04:08:34;17.23;;;7.82;;
39502;SDS011;26970;49.900;10.774;2024-02-28T04:10:59;16.90;;;8.07;;
39502;SDS011;26970;49.900;10.774;2024-02-28T04:13:25;19.17;;;9.00;;
39502;SDS011;26970;49.900;10.774;2024-02-28T04:15:51;18.25;;;7.80;;
39502;SDS011;26970;49.900;10.774;2024-02-28T04:18:16;17.08;;;8.23;;
39502;SDS011;26970;49.900;10.774;2024-02-28T04:20:42;16.30;;;7.88;;
39502;SDS011;26970;49.900;10.774;2024-02-28T04:23:07;20.83;;;8.98;;
39502;SDS011;26970;49.900;10.774;2024-02-28T04:25:33;17.52;;;8.55;;
39502;SDS011;26970;49.900;10.774;2024-02-28T04:27:59;20.05;;;9.18;;
39502;SDS011;26970;49.900;10.774;2024-02-28T04:30:24;19.55;;;8.98;;
39502;SDS011;26970;49.900;10.774;2024-02-28T04:32:50;13.95;;;7.40;;
39502;SDS011;26970;49.900;10.774;2024-02-28T04:35:15;18.65;;;9.15;;
39502;SDS011;26970;49.900;10.774;2024-02-28T04:37:43;15.70;;;7.95;;
39502;SDS011;26970;49.900;10.774;2024-02-28T04:40:11;17.27;;;8.13;;
39502;SDS011;26970;49.900;10.774;2024-02-28T04:42:36;19.77;;;8.00;;
39502;SDS011;26970;49.900;10.774;2024-02-28T04:45:02;21.65;;;8.63;;
39502;SDS011;26970;49.900;10.774;2024-02-28T04:47:28;20.05;;;8.77;;
39502;SDS011;26970;49.900;10.774;2024-02-28T04:49:54;18.92;;;9.32;;
39502;SDS011;26970;49.900;10.774;2024-02-28T04:52:20;16.90;;;8.68;;
39502;SDS011;26970;49.900;10.774;2024-02-28T04:54:45;19.63;;;7.97;;
39502;SDS011;26970;49.900;10.774;2024-02-28T04:57:11;17.67;;;8.23;;
39502;SDS011;26970;49.900;10.774;2024-02-28T04:59:37;16.70;;;8.30;;
39502;SDS011;26970;49.900;10.774;2024-02-28T05:02:02;16.85;;;8.55;;
39502;SDS011;26970;49.900;10.774;2024-02-28T05:04:28;19.45;;;8.57;;
39502;SDS011;26970;49.900;10.774;2024-02-28T05:06:54;19.70;;;8.80;;
39502;SDS011;26970;49.900;10.774;2024-02-28T05:09:19;19.80;;;8.90;;
39502;SDS011;26970;49.900;10.774;2024-02-28T05:11:45;17.83;;;8.63;;
39502;SDS011;26970;49.900;10.774;2024-02-28T05:14:10;16.30;;;8.18;;
39502;SDS011;26970;49.900;10.774;2024-02-28T05:16:36;19.27;;;9.40;;
39502;SDS011;26970;49.900;10.774;2024-02-28T05:19:01;19.15;;;8.93;;
39502;SDS011;26970;49.900;10.774;2024-02-28T05:21:29;16.13;;;8.15;;
39502;SDS011;26970;49.900;10.774;2024-02-28T05:23:55;19.23;;;9.48;;
39502;SDS011;26970;49.900;10.774;2024-02-28T05:26:20;21.75;;;10.18;;
39502;SDS011;26970;49.900;10.774;2024-02-28T05:28:46;18.73;;;9.65;;
39502;SDS011;26970;49.900;10.774;2024-02-28T05:31:24;19.42;;;10.13;;
39502;SDS011;26970;49.900;10.774;2024-02-28T05:33:51;17.80;;;9.57;;
39502;SDS011;26970;49.900;10.774;2024-02-28T05:36:17;17.98;;;9.18;;
39502;SDS011;26970;49.900;10.774;2024-02-28T05:38:43;17.75;;;8.43;;
39502;SDS011;26970;49.900;10.774;2024-02-28T05:41:09;18.33;;;8.82;;
39502;SDS011;26970;49.900;10.774;2024-02-28T05:43:36;16.85;;;9.05;;
39502;SDS011;26970;49.900;10.774;2024-02-28T05:46:03;20.08;;;8.95;;
39502;SDS011;26970;49.900;10.774;2024-02-28T05:48:28;18.35;;;8.65;;
39502;SDS011;26970;49.900;10.774;2024-02-28T05:50:54;20.02;;;9.20;;
39502;SDS011;26970;49.900;10.774;2024-02-28T05:53:20;14.95;;;8.13;;
39502;SDS011;26970;49.900;10.774;2024-02-28T05:55:46;17.50;;;9.18;;
39502;SDS011;26970;49.900;10.774;2024-02-28T05:58:11;18.85;;;8.75;;
39502;SDS011;26970;49.900;10.774;2024-02-28T06:00:38;20.25;;;10.02;;
39502;SDS011;26970;49.900;10.774;2024-02-28T06:03:04;21.17;;;9.65;;
39502;SDS011;26970;49.900;10.774;2024-02-28T06:05:30;17.08;;;9.13;;
39502;SDS011;26970;49.900;10.774;2024-02-28T06:07:55;23.17;;;9.60;;
39502;SDS011;26970;49.900;10.774;2024-02-28T06:10:21;21.38;;;9.00;;
39502;SDS011;26970;49.900;10.774;2024-02-28T06:12:47;16.92;;;9.57;;
39502;SDS011;26970;49.900;10.774;2024-02-28T06:15:12;22.73;;;9.32;;
39502;SDS011;26970;49.900;10.774;2024-02-28T06:17:38;24.70;;;10.23;;
39502;SDS011;26970;49.900;10.774;2024-02-28T06:20:04;23.00;;;10.88;;
39502;SDS011;26970;49.900;10.774;2024-02-28T06:22:31;23.13;;;10.90;;
39502;SDS011;26970;49.900;10.774;2024-02-28T06:24:56;23.88;;;10.85;;
39502;SDS011;26970;49.900;10.774;2024-02-28T06:27:22;24.95;;;11.30;;
39502;SDS011;26970;49.900;10.774;2024-02-28T06:29:48;19.45;;;9.63;;
39502;SDS011;26970;49.900;10.774;2024-02-28T06:32:14;26.25;;;11.05;;
39502;SDS011;26970;49.900;10.774;2024-02-28T06:34:39;25.52;;;11.25;;
39502;SDS011;26970;49.900;10.774;2024-02-28T06:37:05;22.27;;;10.77;;
39502;SDS011;26970;49.900;10.774;2024-02-28T06:39:30;25.05;;;11.75;;
39502;SDS011;26970;49.900;10.774;2024-02-28T06:41:56;20.58;;;9.80;;
39502;SDS011;26970;49.900;10.774;2024-02-28T06:44:21;23.92;;;10.73;;
39502;SDS011;26970;49.900;10.774;2024-02-28T06:46:47;25.27;;;9.90;;
39502;SDS011;26970;49.900;10.774;2024-02-28T06:49:13;21.73;;;9.93;;
39502;SDS011;26970;49.900;10.774;2024-02-28T06:51:38;20.25;;;9.95;;
39502;SDS011;26970;49.900;10.774;2024-02-28T06:54:04;23.77;;;10.20;;
39502;SDS011;26970;49.900;10.774;2024-02-28T06:56:32;19.80;;;9.45;;
39502;SDS011;26970;49.900;10.774;2024-02-28T06:58:58;18.83;;;8.95;;
39502;SDS011;26970;49.900;10.774;2024-02-28T07:01:23;21.85;;;8.88;;
39502;SDS011;26970;49.900;10.774;2024-02-28T07:03:49;19.20;;;8.68;;
39502;SDS011;26970;49.900;10.774;2024-02-28T07:06:14;18.55;;;9.25;;
39502;SDS011;26970;49.900;10.774;2024-02-28T07:08:40;20.65;;;9.38;;
39502;SDS011;26970;49.900;10.774;2024-02-28T07:11:12;18.55;;;8.35;;
39502;SDS011;26970;49.900;10.774;2024-02-28T07:13:38;22.73;;;8.63;;
39502;SDS011;26970;49.900;10.774;2024-02-28T07:16:04;12.90;;;6.47;;
39502;SDS011;26970;49.900;10.774;2024-02-28T07:18:31;18.70;;;8.60;;
39502;SDS011;26970;49.900;10.774;2024-02-28T07:20:57;17.90;;;8.13;;
39502;SDS011;26970;49.900;10.774;2024-02-28T07:23:22;15.90;;;8.02;;
39502;SDS011;26970;49.900;10.774;2024-02-28T07:25:48;19.85;;;8.15;;
39502;SDS011;26970;49.900;10.774;2024-02-28T07:28:13;20.33;;;8.95;;
39502;SDS011;26970;49.900;10.774;2024-02-28T07:30:39;17.17;;;8.50;;
39502;SDS011;26970;49.900;10.774;2024-02-28T07:33:05;20.35;;;9.50;;
39502;SDS011;26970;49.900;10.774;2024-02-28T07:35:30;20.60;;;9.48;;
39502;SDS011;26970;49.900;10.774;2024-02-28T07:37:56;16.17;;;7.28;;
39502;SDS011;26970;49.900;10.774;2024-02-28T07:40:21;18.27;;;9.18;;
39502;SDS011;26970;49.900;10.774;2024-02-28T07:42:47;15.68;;;8.52;;
39502;SDS011;26970;49.900;10.774;2024-02-28T07:45:13;17.60;;;8.30;;
39502;SDS011;26970;49.900;10.774;2024-02-28T07:47:38;15.50;;;8.55;;
39502;SDS011;26970;49.900;10.774;2024-02-28T07:50:05;19.83;;;8.63;;
39502;SDS011;26970;49.900;10.774;2024-02-28T07:52:31;15.35;;;8.45;;
39502;SDS011;26970;49.900;10.774;2024-02-28T07:55:00;18.80;;;8.88;;
39502;SDS011;26970;49.900;10.774;2024-02-28T07:57:26;19.25;;;8.65;;
39502;SDS011;26970;49.900;10.774;2024-02-28T07:59:51;17.58;;;8.40;;
39502;SDS011;26970;49.900;10.774;2024-02-28T08:02:17;17.02;;;8.25;;
39502;SDS011;26970;49.900;10.774;2024-02-28T08:04:45;19.67;;;9.07;;
39502;SDS011;26970;49.900;10.774;2024-02-28T08:07:10;17.80;;;8.15;;
39502;SDS011;26970;49.900;10.774;2024-02-28T08:09:36;19.75;;;9.18;;
39502;SDS011;26970;49.900;10.774;2024-02-28T08:12:01;18.52;;;8.98;;
39502;SDS011;26970;49.900;10.774;2024-02-28T08:14:27;17.48;;;8.10;;
39502;SDS011;26970;49.900;10.774;2024-02-28T08:16:53;19.23;;;8.93;;
39502;SDS011;26970;49.900;10.774;2024-02-28T08:19:18;16.05;;;7.75;;
39502;SDS011;26970;49.900;10.774;2024-02-28T08:21:44;15.68;;;8.45;;
39502;SDS011;26970;49.900;10.774;2024-02-28T08:24:10;16.85;;;8.02;;
39502;SDS011;26970;49.900;10.774;2024-02-28T08:26:35;15.73;;;7.70;;
39502;SDS011;26970;49.900;10.774;2024-02-28T08:29:01;17.65;;;7.80;;
39502;SDS011;26970;49.900;10.774;2024-02-28T08:31:27;19.13;;;9.23;;
39502;SDS011;26970;49.900;10.774;2024-02-28T08:33:53;15.27;;;7.72;;
39502;SDS011;26970;49.900;10.774;2024-02-28T08:36:20;14.77;;;7.28;;
39502;SDS011;26970;49.900;10.774;2024-02-28T08:38:46;15.82;;;7.75;;
39502;SDS011;26970;49.900;10.774;2024-02-28T08:41:11;18.23;;;8.45;;
39502;SDS011;26970;49.900;10.774;2024-02-28T08:43:40;14.00;;;6.88;;
39502;SDS011;26970;49.900;10.774;2024-02-28T08:46:05;14.82;;;7.15;;
39502;SDS011;26970;49.900;10.774;2024-02-28T08:48:32;16.40;;;8.25;;
39502;SDS011;26970;49.900;10.774;2024-02-28T08:50:57;15.07;;;7.45;;
39502;SDS011;26970;49.900;10.774;2024-02-28T08:53:23;13.20;;;6.40;;
39502;SDS011;26970;49.900;10.774;2024-02-28T08:55:48;16.23;;;8.32;;
39502;SDS011;26970;49.900;10.774;2024-02-28T08:58:14;12.25;;;7.28;;
39502;SDS011;26970;49.900;10.774;2024-02-28T09:00:40;12.07;;;6.45;;
39502;SDS011;26970;49.900;10.774;2024-02-28T09:03:05;12.25;;;6.50;;
39502;SDS011;26970;49.900;10.774;2024-02-28T09:05:31;10.25;;;5.25;;
39502;SDS011;26970;49.900;10.774;2024-02-28T09:07:56;10.45;;;5.95;;
39502;SDS011;26970;49.900;10.774;2024-02-28T09:10:22;10.80;;;5.72;;
39502;SDS011;26970;49.900;10.774;2024-02-28T09:12:51;11.82;;;6.07;;
39502;SDS011;26970;49.900;10.774;2024-02-28T09:15:16;11.60;;;6.18;;
39502;SDS011;26970;49.900;10.774;2024-02-28T09:17:43;11.10;;;5.30;;
39502;SDS011;26970;49.900;10.774;2024-02-28T09:20:09;10.90;;;5.95;;
39502;SDS011;26970;49.900;10.774;2024-02-28T09:22:35;10.80;;;6.00;;
39502;SDS011;26970;49.900;10.774;2024-02-28T09:25:00;10.13;;;5.20;;
39502;SDS011;26970;49.900;10.774;2024-02-28T09:27:29;13.73;;;6.03;;
39502;SDS011;26970;49.900;10.774;2024-02-28T09:29:55;10.73;;;5.55;;
39502;SDS011;26970;49.900;10.774;2024-02-28T09:32:20;12.57;;;5.68;;
39502;SDS011;26970;49.900;10.774;2024-02-28T09:34:46;10.90;;;5.20;;
39502;SDS011;26970;49.900;10.774;2024-02-28T09:37:12;11.35;;;6.10;;
39502;SDS011;26970;49.900;10.774;2024-02-28T09:39:38;9.07;;;5.32;;
39502;SDS011;26970;49.900;10.774;2024-02-28T09:42:07;9.98;;;5.78;;
39502;SDS011;26970;49.900;10.774;2024-02-28T09:44:33;12.02;;;5.65;;
39502;SDS011;26970;49.900;10.774;2024-02-28T09:47:01;9.15;;;4.85;;
39502;SDS011;26970;49.900;10.774;2024-02-28T09:49:27;12.88;;;5.63;;
39502;SDS011;26970;49.900;10.774;2024-02-28T09:51:56;8.75;;;5.25;;
39502;SDS011;26970;49.900;10.774;2024-02-28T09:54:23;10.35;;;5.47;;
39502;SDS011;26970;49.900;10.774;2024-02-28T09:56:48;9.70;;;5.32;;
39502;SDS011;26970;49.900;10.774;2024-02-28T09:59:15;12.00;;;5.40;;
39502;SDS011;26970;49.900;10.774;2024-02-28T10:01:43;9.85;;;5.60;;
39502;SDS011;26970;49.900;10.774;2024-02-28T10:04:12;9.32;;;5.50;;
39502;SDS011;26970;49.900;10.774;2024-02-28T10:06:41;9.20;;;5.53;;
39502;SDS011;26970;49.900;10.774;2024-02-28T10:09:07;10.43;;;5.22;;
39502;SDS011;26970;49.900;10.774;2024-02-28T10:11:33;9.13;;;5.30;;
39502;SDS011;26970;49.900;10.774;2024-02-28T10:14:00;9.13;;;5.07;;
39502;SDS011;26970;49.900;10.774;2024-02-28T10:16:26;10.60;;;5.65;;
39502;SDS011;26970;49.900;10.774;2024-02-28T10:18:52;10.13;;;4.88;;
39502;SDS011;26970;49.900;10.774;2024-02-28T10:21:18;9.85;;;5.72;;
39502;SDS011;26970;49.900;10.774;2024-02-28T10:23:44;8.93;;;5.22;;
39502;SDS011;26970;49.900;10.774;2024-02-28T10:26:10;9.80;;;5.35;;
39502;SDS011;26970;49.900;10.774;2024-02-28T10:28:39;11.00;;;5.68;;
39502;SDS011;26970;49.900;10.774;2024-02-28T10:31:06;10.07;;;5.15;;
39502;SDS011;26970;49.900;10.774;2024-02-28T10:33:32;8.45;;;5.10;;
39502;SDS011;26970;49.900;10.774;2024-02-28T10:36:00;9.43;;;4.85;;
39502;SDS011;26970;49.900;10.774;2024-02-28T10:38:28;9.18;;;4.97;;
39502;SDS011;26970;49.900;10.774;2024-02-28T10:40:55;10.73;;;5.75;;
39502;SDS011;26970;49.900;10.774;2024-02-28T10:43:22;9.18;;;5.07;;
39502;SDS011;26970;49.900;10.774;2024-02-28T10:45:51;11.55;;;5.38;;
39502;SDS011;26970;49.900;10.774;2024-02-28T10:48:17;9.25;;;5.38;;
39502;SDS011;26970;49.900;10.774;2024-02-28T10:50:44;9.30;;;5.38;;
39502;SDS011;26970;49.900;10.774;2024-02-28T10:53:13;9.50;;;5.30;;
39502;SDS011;26970;49.900;10.774;2024-02-28T10:55:40;8.98;;;4.97;;
39502;SDS011;26970;49.900;10.774;2024-02-28T10:58:06;9.00;;;5.18;;
39502;SDS011;26970;49.900;10.774;2024-02-28T11:00:34;8.77;;;5.10;;
39502;SDS011;26970;49.900;10.774;2024-02-28T11:03:03;10.63;;;5.97;;
39502;SDS011;26970;49.900;10.774;2024-02-28T11:05:39;11.25;;;5.72;;
39502;SDS011;26970;49.900;10.774;2024-02-28T11:08:19;9.60;;;4.85;;
39502;SDS011;26970;49.900;10.774;2024-02-28T11:11:01;9.30;;;5.20;;
39502;SDS011;26970;49.900;10.774;2024-02-28T11:13:29;10.07;;;5.68;;
39502;SDS011;26970;49.900;10.774;2024-02-28T11:16:06;8.95;;;4.85;;
39502;SDS011;26970;49.900;10.774;2024-02-28T11:18:32;9.15;;;5.18;;
39502;SDS011;26970;49.900;10.774;2024-02-28T11:20:58;7.78;;;4.30;;
39502;SDS011;26970;49.900;10.774;2024-02-28T11:23:24;8.38;;;4.55;;
39502;SDS011;26970;49.900;10.774;2024-02-28T11:25:49;9.70;;;5.18;;
39502;SDS011;26970;49.900;10.774;2024-02-28T11:28:15;10.15;;;4.93;;
39502;SDS011;26970;49.900;10.774;2024-02-28T11:30:41;7.50;;;4.53;;
39502;SDS011;26970;49.900;10.774;2024-02-28T11:33:06;8.27;;;4.63;;
39502;SDS011;26970;49.900;10.774;2024-02-28T11:35:34;8.82;;;4.75;;
39502;SDS011;26970;49.900;10.774;2024-02-28T11:38:00;7.93;;;4.30;;
39502;SDS011;26970;49.900;10.774;2024-02-28T11:40:26;7.65;;;4.38;;
39502;SDS011;26970;49.900;10.774;2024-02-28T11:42:52;7.57;;;4.22;;
39502;SDS011;26970;49.900;10.774;2024-02-28T11:45:19;9.32;;;4.10;;
39502;SDS011;26970;49.900;10.774;2024-02-28T11:47:45;7.50;;;4.40;;
39502;SDS011;26970;49.900;10.774;2024-02-28T11:50:11;7.47;;;3.97;;
39502;SDS011;26970;49.900;10.774;2024-02-28T11:52:36;7.95;;;4.32;;
39502;SDS011;26970;49.900;10.774;2024-02-28T11:55:02;7.72;;;4.38;;
39502;SDS011;26970;49.900;10.774;2024-02-28T11:57:28;7.65;;;3.88;;
39502;SDS011;26970;49.900;10.774;2024-02-28T11:59:58;9.48;;;4.53;;
39502;SDS011;26970;49.900;10.774;2024-02-28T12:02:28;8.93;;;3.75;;
39502;SDS011;26970;49.900;10.774;2024-02-28T12:04:55;6.97;;;3.40;;
39502;SDS011;26970;49.900;10.774;2024-02-28T12:07:25;8.00;;;3.88;;
39502;SDS011;26970;49.900;10.774;2024-02-28T12:09:51;8.20;;;3.88;;
39502;SDS011;26970;49.900;10.774;2024-02-28T12:12:19;6.00;;;3.25;;
39502;SDS011;26970;49.900;10.774;2024-02-28T12:14:45;6.50;;;3.63;;
39502;SDS011;26970;49.900;10.774;2024-02-28T12:17:11;6.68;;;3.60;;
39502;SDS011;26970;49.900;10.774;2024-02-28T12:19:38;5.78;;;3.58;;
39502;SDS011;26970;49.900;10.774;2024-02-28T12:22:04;8.30;;;3.85;;
39502;SDS011;26970;49.900;10.774;2024-02-28T12:24:29;7.88;;;3.55;;
39502;SDS011;26970;49.900;10.774;2024-02-28T12:26:55;6.47;;;4.00;;
39502;SDS011;26970;49.900;10.774;2024-02-28T12:29:21;6.60;;;3.50;;
39502;SDS011;26970;49.900;10.774;2024-02-28T12:31:46;7.22;;;3.83;;
39502;SDS011;26970;49.900;10.774;2024-02-28T12:34:12;6.13;;;3.50;;
39502;SDS011;26970;49.900;10.774;2024-02-28T12:36:40;7.10;;;3.60;;
39502;SDS011;26970;49.900;10.774;2024-02-28T12:39:06;7.20;;;3.45;;
39502;SDS011;26970;49.900;10.774;2024-02-28T12:41:32;5.70;;;3.53;;
39502;SDS011;26970;49.900;10.774;2024-02-28T12:43:58;7.28;;;3.75;;
39502;SDS011;26970;49.900;10.774;2024-02-28T12:46:23;7.60;;;3.55;;
39502;SDS011;26970;49.900;10.774;2024-02-28T12:48:49;7.78;;;3.92;;
39502;SDS011;26970;49.900;10.774;2024-02-28T12:51:35;6.75;;;3.60;;
39502;SDS011;26970;49.900;10.774;2024-02-28T12:54:03;9.40;;;3.78;;
39502;SDS011;26970;49.900;10.774;2024-02-28T12:56:28;6.07;;;3.33;;
39502;SDS011;26970;49.900;10.774;2024-02-28T12:58:54;6.05;;;3.53;;
39502;SDS011;26970;49.900;10.774;2024-02-28T13:01:19;8.40;;;3.83;;
39502;SDS011;26970;49.900;10.774;2024-02-28T13:03:45;6.30;;;3.53;;
39502;SDS011;26970;49.900;10.774;2024-02-28T13:06:10;6.13;;;3.67;;
39502;SDS011;26970;49.900;10.774;2024-02-28T13:08:36;6.88;;;4.05;;
39502;SDS011;26970;49.900;10.774;2024-02-28T13:11:01;7.18;;;3.65;;
39502;SDS011;26970;49.900;10.774;2024-02-28T13:13:28;6.60;;;3.67;;
39502;SDS011;26970;49.900;10.774;2024-02-28T13:15:53;5.05;;;3.15;;
39502;SDS011;26970;49.900;10.774;2024-02-28T13:18:19;7.05;;;3.90;;
39502;SDS011;26970;49.900;10.774;2024-02-28T13:20:45;7.50;;;3.97;;
39502;SDS011;26970;49.900;10.774;2024-02-28T13:23:10;6.35;;;3.70;;
39502;SDS011;26970;49.900;10.774;2024-02-28T13:25:36;6.15;;;2.97;;
39502;SDS011;26970;49.900;10.774;2024-02-28T13:28:02;7.13;;;3.58;;
39502;SDS011;26970;49.900;10.774;2024-02-28T13:30:27;5.95;;;3.53;;
39502;SDS011;26970;49.900;10.774;2024-02-28T13:32:53;6.68;;;3.35;;
39502;SDS011;26970;49.900;10.774;2024-02-28T13:35:18;7.97;;;3.30;;
39502;SDS011;26970;49.900;10.774;2024-02-28T13:37:44;7.50;;;3.40;;
39502;SDS011;26970;49.900;10.774;2024-02-28T13:40:10;8.10;;;3.00;;
39502;SDS011;26970;49.900;10.774;2024-02-28T13:42:36;5.80;;;3.35;;
39502;SDS011;26970;49.900;10.774;2024-02-28T13:45:03;4.55;;;2.80;;
39502;SDS011;26970;49.900;10.774;2024-02-28T13:47:32;6.50;;;3.47;;
39502;SDS011;26970;49.900;10.774;2024-02-28T13:49:58;7.03;;;3.28;;
39502;SDS011;26970;49.900;10.774;2024-02-28T13:52:24;6.53;;;3.15;;
39502;SDS011;26970;49.900;10.774;2024-02-28T13:54:49;6.53;;;3.50;;
39502;SDS011;26970;49.900;10.774;2024-02-28T13:57:17;5.70;;;3.10;;
39502;SDS011;26970;49.900;10.774;2024-02-28T13:59:42;5.80;;;3.60;;
39502;SDS011;26970;49.900;10.774;2024-02-28T14:02:08;5.82;;;3.28;;
39502;SDS011;26970;49.900;10.774;2024-02-28T14:04:35;5.55;;;3.38;;
39502;SDS011;26970;49.900;10.774;2024-02-28T14:07:02;5.22;;;3.20;;
39502;SDS011;26970;49.900;10.774;2024-02-28T14:09:28;8.25;;;3.65;;
39502;SDS011;26970;49.900;10.774;2024-02-28T14:11:53;5.93;;;3.50;;
39502;SDS011;26970;49.900;10.774;2024-02-28T14:14:19;5.60;;;3.15;;
39502;SDS011;26970;49.900;10.774;2024-02-28T14:16:45;5.43;;;3.40;;